createdAt,value
2022-12-08T00:02:09.000Z,97259.72
2022-12-08T00:04:58.247Z,97264.00
2022-12-08T00:07:45.601Z,97260.88
2022-12-08T00:10:46.470Z,97263.50
2022-12-08T00:13:03.278Z,97253.53
2022-12-08T00:15:31.712Z,97258.75
2022-12-08T00:18:00.235Z,97264.72
2022-12-08T00:20:28.766Z,97259.69
2022-12-08T00:22:58.599Z,97255.63
2022-12-08T00:25:27.107Z,97262.44
2022-12-08T00:27:55.540Z,97260.00
2022-12-08T00:30:24.115Z,97247.44
2022-12-08T00:32:52.659Z,97252.56
2022-12-08T00:35:21.179Z,97253.56
2022-12-08T00:37:49.682Z,97257.09
2022-12-08T00:40:19.787Z,97249.63
2022-12-08T00:42:48.306Z,97248.28
2022-12-08T00:45:17.646Z,97245.88
2022-12-08T00:47:46.180Z,97242.44
2022-12-08T00:50:14.750Z,97238.31
2022-12-08T00:52:43.210Z,97233.94
2022-12-08T00:55:11.878Z,97238.91
2022-12-08T00:57:41.708Z,97238.09
2022-12-08T01:00:11.049Z,97236.50
2022-12-08T01:02:39.503Z,97226.34
2022-12-08T01:05:08.969Z,97229.81
2022-12-08T01:07:37.728Z,97225.56
2022-12-08T01:10:07.884Z,97222.28
2022-12-08T01:12:36.763Z,97225.75
2022-12-08T01:15:07.717Z,97235.13
2022-12-08T01:17:37.906Z,97225.19
2022-12-08T01:20:07.963Z,97221.72
2022-12-08T01:22:36.558Z,97225.22
2022-12-08T01:25:05.572Z,97230.34
2022-12-08T01:27:34.107Z,97229.59
2022-12-08T01:30:03.661Z,97234.00
2022-12-08T01:32:33.796Z,97230.72
2022-12-08T01:35:02.679Z,97241.63
2022-12-08T01:37:31.263Z,97242.53
2022-12-08T01:39:59.814Z,97242.56
2022-12-08T01:42:28.278Z,97243.50
2022-12-08T01:44:59.939Z,97245.22
2022-12-08T01:47:36.659Z,97236.13
2022-12-08T01:50:09.819Z,97236.16
2022-12-08T01:52:41.836Z,97234.50
2022-12-08T01:55:18.429Z,97235.41
2022-12-08T01:57:48.401Z,97235.47
2022-12-08T02:00:20.758Z,97230.44
2022-12-08T02:02:58.983Z,97232.94
2022-12-08T02:05:30.014Z,97224.56
2022-12-08T02:07:59.744Z,97227.03
2022-12-08T02:10:31.470Z,97222.03
2022-12-08T02:13:02.035Z,97223.78
2022-12-08T02:15:37.007Z,97217.91
2022-12-08T02:18:19.653Z,97221.47
2022-12-08T02:20:57.213Z,97218.34
2022-12-08T02:23:36.162Z,97209.06
2022-12-08T02:26:40.642Z,97202.34
2022-12-08T02:29:39.969Z,97204.03
2022-12-08T02:32:28.723Z,97210.78
2022-12-08T02:35:04.956Z,97205.72
2022-12-08T02:37:38.216Z,97198.09
2022-12-08T02:40:15.452Z,97202.31
2022-12-08T02:42:48.095Z,97188.88
2022-12-08T02:45:23.484Z,97187.22
2022-12-08T02:47:52.967Z,97182.22
2022-12-08T02:50:22.898Z,97183.09
2022-12-08T02:52:53.978Z,97169.72
2022-12-08T02:55:27.515Z,97168.09
2022-12-08T02:58:27.589Z,97169.81
2022-12-08T03:01:13.927Z,97168.13
2022-12-08T03:03:52.976Z,97163.88
2022-12-08T03:06:30.265Z,97172.31
2022-12-08T03:09:04.380Z,97163.97
2022-12-08T03:11:37.453Z,97165.66
2022-12-08T03:14:09.685Z,97160.69
2022-12-08T03:16:41.370Z,97160.59
2022-12-08T03:19:15.327Z,97165.69
2022-12-08T03:21:48.924Z,97161.53
2022-12-08T03:24:19.946Z,97164.97
2022-12-08T03:26:54.298Z,97161.63
2022-12-08T03:29:23.031Z,97164.19
2022-12-08T03:31:55.487Z,97155.78
2022-12-08T03:34:26.975Z,97156.63
2022-12-08T03:36:57.152Z,97149.09
2022-12-08T03:39:25.664Z,97149.19
2022-12-08T03:41:54.251Z,97151.72
2022-12-08T03:44:22.750Z,97144.13
2022-12-08T03:46:51.215Z,97143.31
2022-12-08T03:49:19.683Z,97146.69
2022-12-08T03:51:48.105Z,97140.00
2022-12-08T03:54:18.012Z,97142.56
2022-12-08T03:56:46.501Z,97141.72
2022-12-08T03:59:15.078Z,97129.13
2022-12-08T04:01:43.684Z,97127.50
2022-12-08T04:04:12.516Z,97126.75
2022-12-08T04:06:41.026Z,97123.31
2022-12-08T04:09:10.314Z,97118.44
2022-12-08T04:11:40.187Z,97126.94
2022-12-08T04:14:08.816Z,97121.03
2022-12-08T04:16:37.483Z,97126.97
2022-12-08T04:19:05.989Z,97129.50
2022-12-08T04:21:35.525Z,97124.47
2022-12-08T04:24:04.115Z,97116.88
2022-12-08T04:26:32.651Z,97117.81
2022-12-08T04:29:02.482Z,97119.50
2022-12-08T04:31:31.069Z,97118.63
2022-12-08T04:33:59.603Z,97122.81
2022-12-08T04:36:30.900Z,97124.53
2022-12-08T04:38:59.453Z,97118.69
2022-12-08T04:41:27.949Z,97112.78
2022-12-08T04:43:56.423Z,97106.88
2022-12-08T04:46:26.319Z,97105.28
2022-12-08T04:48:54.811Z,97105.31
2022-12-08T04:51:23.372Z,97098.56
2022-12-08T04:53:51.887Z,97091.00
2022-12-08T04:56:21.351Z,97092.63
2022-12-08T04:58:49.838Z,97098.47
2022-12-08T05:01:18.472Z,97102.63
2022-12-08T05:03:48.323Z,97101.78
2022-12-08T05:06:16.842Z,97100.09
2022-12-08T05:08:45.427Z,97101.81
2022-12-08T05:11:14.635Z,97106.06
2022-12-08T05:13:43.151Z,97091.81
2022-12-08T05:16:14.393Z,97092.69
2022-12-08T05:18:43.843Z,97085.16
2022-12-08T05:21:13.604Z,97094.47
2022-12-08T05:23:42.206Z,97081.03
2022-12-08T05:26:10.685Z,97090.28
2022-12-08T05:28:42.234Z,97089.47
2022-12-08T05:31:11.862Z,97091.16
2022-12-08T05:33:40.780Z,97093.66
2022-12-08T05:36:09.874Z,97087.78
2022-12-08T05:38:42.220Z,97090.41
2022-12-08T05:41:14.388Z,97089.59
2022-12-08T05:43:43.027Z,97079.44
2022-12-08T05:46:12.002Z,97087.00
2022-12-08T05:48:40.728Z,97080.31
2022-12-08T05:51:18.032Z,97080.38
2022-12-08T05:53:48.091Z,97077.16
2022-12-08T05:56:16.681Z,97084.72
2022-12-08T05:58:45.295Z,97075.50
2022-12-08T06:01:20.383Z,97075.41
2022-12-08T06:03:49.083Z,97079.59
2022-12-08T06:06:18.654Z,97077.09
2022-12-08T06:08:48.534Z,97074.66
2022-12-08T06:11:20.762Z,97070.44
2022-12-08T06:13:49.691Z,97075.56
2022-12-08T06:16:18.950Z,97071.34
2022-12-08T06:18:47.582Z,97072.19
2022-12-08T06:21:17.518Z,97078.06
2022-12-08T06:23:50.994Z,97083.97
2022-12-08T06:26:20.449Z,97077.31
2022-12-08T06:28:49.996Z,97075.69
2022-12-08T06:31:21.312Z,97081.56
2022-12-08T06:33:50.554Z,97079.09
2022-12-08T06:36:22.017Z,97084.13
2022-12-08T06:38:52.187Z,97083.41
2022-12-08T06:41:20.762Z,97086.78
2022-12-08T06:43:49.205Z,97090.13
2022-12-08T06:46:19.525Z,97085.13
2022-12-08T06:48:48.898Z,97087.63
2022-12-08T06:51:20.364Z,97081.75
2022-12-08T06:53:48.875Z,97096.91
2022-12-08T06:56:20.036Z,97096.94
2022-12-08T06:58:52.536Z,97096.13
2022-12-08T07:01:21.746Z,97095.25
2022-12-08T07:03:50.345Z,97090.28
2022-12-08T07:06:23.147Z,97091.06
2022-12-08T07:08:51.929Z,97090.19
2022-12-08T07:11:22.740Z,97084.28
2022-12-08T07:13:51.629Z,97091.84
2022-12-08T07:16:20.328Z,97092.78
2022-12-08T07:18:48.875Z,97094.50
2022-12-08T07:21:18.899Z,97096.16
2022-12-08T07:23:54.444Z,97102.00
2022-12-08T07:26:27.767Z,97099.41
2022-12-08T07:28:56.560Z,97100.25
2022-12-08T07:31:26.808Z,97098.53
2022-12-08T07:33:55.617Z,97100.19
2022-12-08T07:36:25.007Z,97096.88
2022-12-08T07:38:54.165Z,97100.22
2022-12-08T07:41:24.346Z,97111.97
2022-12-08T07:43:54.525Z,97110.22
2022-12-08T07:46:25.293Z,97109.25
2022-12-08T07:48:55.253Z,97110.06
2022-12-08T07:51:24.808Z,97114.16
2022-12-08T07:53:55.007Z,97106.63
2022-12-08T07:56:24.203Z,97117.50
2022-12-08T07:58:54.053Z,97114.94
2022-12-08T08:01:25.304Z,97107.34
2022-12-08T08:03:54.864Z,97107.31
2022-12-08T08:06:23.921Z,97109.81
2022-12-08T08:08:52.348Z,97114.78
2022-12-08T08:11:21.812Z,97109.72
2022-12-08T08:13:50.695Z,97110.50
2022-12-08T08:16:21.741Z,97107.09
2022-12-08T08:18:51.356Z,97110.44
2022-12-08T08:21:44.519Z,97106.16
2022-12-08T08:24:10.218Z,97102.75
2022-12-08T08:26:39.084Z,97105.22
2022-12-08T08:29:07.630Z,97112.75
2022-12-08T08:31:37.569Z,97105.88
2022-12-08T08:34:06.452Z,97107.44
2022-12-08T08:36:35.301Z,97109.88
2022-12-08T08:39:04.620Z,97103.06
2022-12-08T08:41:33.255Z,97108.72
2022-12-08T08:44:01.770Z,97095.94
2022-12-08T08:46:30.445Z,97099.97
2022-12-08T08:49:00.469Z,97096.41
2022-12-08T08:51:28.957Z,97086.13
2022-12-08T08:53:57.948Z,97093.56
2022-12-08T08:56:26.886Z,97087.47
2022-12-08T08:58:55.691Z,97088.06
2022-12-08T09:01:26.094Z,97101.31
2022-12-08T09:03:55.179Z,97093.59
2022-12-08T09:06:25.044Z,97091.75
2022-12-08T09:08:53.620Z,97090.72
2022-12-08T09:11:23.286Z,97084.63
2022-12-08T09:13:52.791Z,97077.75
2022-12-08T09:16:22.542Z,97088.63
2022-12-08T09:18:51.825Z,97082.56
2022-12-08T09:21:23.356Z,97078.19
2022-12-08T09:23:55.523Z,97077.94
2022-12-08T09:26:25.091Z,97066.78
2022-12-08T09:28:55.828Z,97072.38
2022-12-08T09:31:25.420Z,97067.06
2022-12-08T09:33:54.080Z,97066.72
2022-12-08T09:36:22.985Z,97061.28
2022-12-08T09:38:53.795Z,97065.22
2022-12-08T09:41:35.985Z,97062.19
2022-12-08T09:44:31.993Z,97060.41
2022-12-08T09:47:04.641Z,97058.06
2022-12-08T09:49:39.585Z,97054.41
2022-12-08T09:52:21.148Z,97045.47
2022-12-08T09:54:51.269Z,97045.84
2022-12-08T09:57:23.591Z,97042.19
2022-12-08T09:59:56.838Z,97043.44
2022-12-08T10:02:27.261Z,97035.50
2022-12-08T10:04:57.224Z,97039.28
2022-12-08T10:07:35.461Z,97032.50
2022-12-08T10:10:15.333Z,97032.69
2022-12-08T10:12:50.851Z,97031.31
2022-12-08T10:15:32.462Z,97023.50
2022-12-08T10:18:04.038Z,97017.69
2022-12-08T10:20:38.052Z,97010.53
2022-12-08T10:23:11.468Z,97011.28
2022-12-08T10:25:45.742Z,97006.63
2022-12-08T10:28:15.082Z,97005.91
2022-12-08T10:30:43.839Z,97003.56
2022-12-08T10:33:16.753Z,97004.16
2022-12-08T10:35:47.527Z,96997.38
2022-12-08T10:38:23.187Z,96996.31
2022-12-08T10:40:58.155Z,96992.47
2022-12-08T10:43:28.504Z,96988.97
2022-12-08T10:46:09.439Z,96988.31
2022-12-08T10:48:38.332Z,96977.28
2022-12-08T10:51:23.744Z,96977.81
2022-12-08T10:53:52.205Z,96970.50
2022-12-08T10:56:26.619Z,96979.00
2022-12-08T10:59:08.133Z,96973.13
2022-12-08T11:01:40.322Z,96976.69
2022-12-08T11:04:16.540Z,96965.94
2022-12-08T11:06:46.055Z,96960.69
2022-12-08T11:09:38.242Z,96961.41
2022-12-08T11:12:15.241Z,96955.13
2022-12-08T11:14:50.272Z,96949.88
2022-12-08T11:17:26.162Z,96950.19
2022-12-08T11:20:01.925Z,96946.94
2022-12-08T11:22:33.148Z,96937.75
2022-12-08T11:25:10.261Z,96925.81
2022-12-08T11:27:43.360Z,96919.28
2022-12-08T11:30:16.759Z,96927.78
2022-12-08T11:32:47.761Z,96925.88
2022-12-08T11:35:24.003Z,96919.69
2022-12-08T11:38:13.429Z,96917.06
2022-12-08T11:40:47.125Z,96921.69
2022-12-08T11:43:23.091Z,96910.63
2022-12-08T11:45:58.763Z,96912.13
2022-12-08T11:48:34.626Z,96909.44
2022-12-08T11:51:10.499Z,96907.59
2022-12-08T11:53:48.378Z,96913.47
2022-12-08T11:56:23.234Z,96909.84
2022-12-08T11:58:57.739Z,96907.22
2022-12-08T12:01:27.743Z,96899.72
2022-12-08T12:04:10.564Z,96900.66
2022-12-08T12:08:30.496Z,96901.38
2022-12-08T12:11:11.732Z,96895.50
2022-12-08T12:13:58.647Z,96905.09
2022-12-08T12:16:51.105Z,96898.50
2022-12-08T12:19:22.861Z,96889.22
2022-12-08T12:21:54.899Z,96895.88
2022-12-08T12:24:32.841Z,96891.47
2022-12-08T12:27:09.264Z,96897.06
2022-12-08T12:29:39.500Z,96888.38
2022-12-08T12:32:09.682Z,96895.16
2022-12-08T12:34:44.398Z,96887.56
2022-12-08T12:37:15.606Z,96882.44
2022-12-08T12:39:56.156Z,96880.56
2022-12-08T12:42:39.573Z,96878.63
2022-12-08T12:45:25.293Z,96879.03
2022-12-08T12:48:15.442Z,96867.78
2022-12-08T12:50:45.741Z,96869.34
2022-12-08T12:53:53.936Z,96864.09
2022-12-08T12:56:49.842Z,96859.44
2022-12-08T12:59:54.928Z,96860.06
2022-12-08T13:02:27.103Z,96853.69
2022-12-08T13:05:03.284Z,96857.25
2022-12-08T13:07:35.402Z,96851.31
2022-12-08T13:10:17.600Z,96849.34
2022-12-08T13:13:04.495Z,96844.66
2022-12-08T13:15:36.539Z,96848.00
2022-12-08T13:18:06.680Z,96854.28
2022-12-08T13:20:43.461Z,96852.84
2022-12-08T13:23:32.107Z,96837.81
2022-12-08T13:26:16.508Z,96845.53
2022-12-08T13:29:23.266Z,96849.63
2022-12-08T13:31:54.118Z,96844.72
2022-12-08T13:34:31.055Z,96845.22
2022-12-08T13:37:20.070Z,96849.50
2022-12-08T13:39:53.075Z,96850.81
2022-12-08T13:42:30.166Z,96847.56
2022-12-08T13:45:36.245Z,96845.06
2022-12-08T13:48:22.126Z,96846.41
2022-12-08T13:57:05.124Z,96845.78
2022-12-08T13:59:32.663Z,96840.94
2022-12-08T14:02:06.583Z,96846.03
2022-12-08T14:04:54.461Z,96834.38
2022-12-08T14:07:24.924Z,96841.94
2022-12-08T14:09:54.124Z,96849.00
2022-12-08T14:12:25.819Z,96845.69
2022-12-08T14:15:04.047Z,96837.28
2022-12-08T14:17:34.954Z,96840.13
2022-12-08T14:20:06.561Z,96841.06
2022-12-08T14:22:36.829Z,96837.41
2022-12-08T14:25:06.813Z,96840.59
2022-12-08T14:27:37.763Z,96843.69
2022-12-08T14:30:08.815Z,96854.88
2022-12-08T14:32:45.280Z,96837.63
2022-12-08T14:35:19.153Z,96841.53
2022-12-08T14:37:49.881Z,96845.31
2022-12-08T14:40:23.653Z,96845.44
2022-12-08T14:42:55.277Z,96839.69
2022-12-08T14:45:23.992Z,96845.03
2022-12-08T14:47:53.819Z,96840.72
2022-12-08T14:50:40.385Z,96834.50
2022-12-08T14:53:15.455Z,96844.50
2022-12-08T14:55:46.384Z,96839.81
2022-12-08T14:58:27.752Z,96838.09
2022-12-08T15:00:58.907Z,96836.50
2022-12-08T15:03:32.110Z,96836.56
2022-12-08T15:06:05.096Z,96835.66
2022-12-08T15:08:35.101Z,96838.38
2022-12-08T15:11:28.434Z,96845.41
2022-12-08T15:13:57.024Z,96847.84
2022-12-08T15:16:28.310Z,96845.44
2022-12-08T15:19:16.612Z,96848.75
2022-12-08T15:21:46.956Z,96838.72
2022-12-08T15:24:16.751Z,96838.88
2022-12-08T15:26:47.590Z,96843.91
2022-12-08T15:29:22.209Z,96840.56
2022-12-08T15:31:52.327Z,96848.66
2022-12-08T15:34:22.527Z,96854.69
2022-12-08T15:36:52.929Z,96855.53
2022-12-08T15:39:39.579Z,96844.50
2022-12-08T15:42:13.271Z,96848.91
2022-12-08T15:44:42.313Z,96842.25
2022-12-08T15:47:16.675Z,96841.47
2022-12-08T15:49:46.926Z,96838.94
2022-12-08T15:52:17.982Z,96840.06
2022-12-08T15:54:46.757Z,96833.31
2022-12-08T15:57:35.857Z,96837.50
2022-12-08T16:00:51.244Z,96835.75
2022-12-08T16:09:12.721Z,96832.63
2022-12-08T16:12:08.899Z,96821.63
2022-12-08T16:17:28.882Z,96825.78
2022-12-08T16:19:58.753Z,96826.56
2022-12-08T16:25:22.137Z,96817.31
2022-12-08T16:28:36.796Z,96807.25
2022-12-08T16:30:42.293Z,96809.88
2022-12-08T16:33:12.374Z,96804.00
2022-12-08T16:35:41.784Z,96815.03
2022-12-08T16:38:15.503Z,96803.25
2022-12-08T16:40:59.690Z,96800.78
2022-12-08T16:43:28.108Z,96808.41
2022-12-08T16:45:56.595Z,96801.75
2022-12-08T16:48:25.240Z,96805.22
2022-12-08T16:50:53.959Z,96801.75
2022-12-08T16:53:24.446Z,96809.31
2022-12-08T16:55:52.978Z,96805.09
2022-12-08T16:58:21.586Z,96806.84
2022-12-08T17:00:50.122Z,96805.84
2022-12-08T17:03:18.922Z,96810.09
2022-12-08T17:05:47.454Z,96813.63
2022-12-08T17:08:16.095Z,96811.88
2022-12-08T17:11:06.095Z,96818.72
2022-12-08T17:13:35.024Z,96806.97
2022-12-08T17:16:03.794Z,96805.34
2022-12-08T17:18:32.238Z,96803.84
2022-12-08T17:21:00.887Z,96802.38
2022-12-08T17:23:29.469Z,96808.03
2022-12-08T17:26:01.013Z,96807.94
2022-12-08T17:28:51.923Z,96795.25
2022-12-08T17:31:18.594Z,96802.75
2022-12-08T17:33:47.121Z,96802.03
2022-12-08T17:36:17.807Z,96803.72
2022-12-08T17:38:46.422Z,96803.66
2022-12-08T17:41:16.408Z,96806.31
2022-12-08T17:43:44.949Z,96810.63
2022-12-08T17:46:18.215Z,96811.69
2022-12-08T17:48:46.875Z,96813.38
2022-12-08T17:51:15.721Z,96806.59
2022-12-08T17:53:44.707Z,96810.84
2022-12-08T17:56:18.038Z,96806.72
2022-12-08T17:58:49.868Z,96810.06
2022-12-08T18:01:22.929Z,96808.41
2022-12-08T18:03:52.352Z,96800.78
2022-12-08T18:06:21.134Z,96813.44
2022-12-08T18:08:49.615Z,96809.97
2022-12-08T18:11:21.015Z,96808.41
2022-12-08T18:13:51.035Z,96805.88
2022-12-08T18:16:21.676Z,96815.28
2022-12-08T18:18:50.294Z,96828.88
2022-12-08T18:21:23.233Z,96825.63
2022-12-08T18:23:52.336Z,96826.41
2022-12-08T18:26:22.981Z,96817.00
2022-12-08T18:28:51.448Z,96811.22
2022-12-08T18:31:22.454Z,96806.09
2022-12-08T18:33:52.039Z,96812.91
2022-12-08T18:36:23.098Z,96804.44
2022-12-08T18:38:52.923Z,96812.84
2022-12-08T18:41:25.723Z,96796.19
2022-12-08T18:43:55.248Z,96796.38
2022-12-08T18:46:25.316Z,96800.47
2022-12-08T18:48:54.106Z,96795.38
2022-12-08T18:51:24.843Z,96796.25
2022-12-08T18:53:53.978Z,96804.59
2022-12-08T18:56:26.408Z,96791.13
2022-12-08T18:59:01.336Z,96797.16
2022-12-08T19:01:32.618Z,96798.91
2022-12-08T19:04:27.218Z,96794.53
2022-12-08T19:06:50.524Z,96788.63
2022-12-08T19:09:19.637Z,96785.22
2022-12-08T19:11:49.637Z,96786.09
2022-12-08T19:14:22.605Z,96786.94
2022-12-08T19:16:54.550Z,96791.22
2022-12-08T19:19:23.059Z,96784.47
2022-12-08T19:21:51.778Z,96788.56
2022-12-08T19:24:20.864Z,96792.09
2022-12-08T19:26:50.791Z,96776.84
2022-12-08T19:29:19.245Z,96779.31
2022-12-08T19:31:47.993Z,96775.94
2022-12-08T19:34:16.687Z,96779.50
2022-12-08T19:36:45.683Z,96776.31
2022-12-08T19:39:36.257Z,96777.94
2022-12-08T19:42:24.742Z,96779.75
2022-12-08T19:44:56.060Z,96777.22
2022-12-08T19:47:26.977Z,96772.94
2022-12-08T19:50:16.229Z,96775.59
2022-12-08T19:52:45.278Z,96771.31
2022-12-08T19:55:14.036Z,96775.50
2022-12-08T19:57:46.423Z,96767.19
2022-12-08T20:00:15.396Z,96759.44
2022-12-08T20:02:43.997Z,96758.66
2022-12-08T20:05:13.318Z,96761.97
2022-12-08T20:07:42.375Z,96754.38
2022-12-08T20:10:17.986Z,96759.66
2022-12-08T20:12:47.798Z,96752.09
2022-12-08T20:15:16.496Z,96750.53
2022-12-08T20:17:44.938Z,96755.50
2022-12-08T20:20:14.896Z,96757.19
2022-12-08T20:22:45.213Z,96758.28
2022-12-08T20:25:13.797Z,96760.03
2022-12-08T20:27:42.611Z,96758.47
2022-12-08T20:30:17.030Z,96767.72
2022-12-08T20:32:46.398Z,96766.09
2022-12-08T20:35:16.340Z,96774.69
2022-12-08T20:37:45.308Z,96772.22
2022-12-08T20:40:14.073Z,96764.59
2022-12-08T20:42:42.947Z,96756.25
2022-12-08T20:45:12.787Z,96758.06
2022-12-08T20:47:41.549Z,96757.47
2022-12-08T20:50:11.048Z,96752.53
2022-12-08T20:52:40.282Z,96754.69
2022-12-08T20:55:09.925Z,96755.84
2022-12-08T20:57:38.743Z,96757.78
2022-12-08T21:00:09.172Z,96757.22
2022-12-08T21:02:45.284Z,96750.72
2022-12-08T21:05:16.493Z,96758.50
2022-12-08T21:07:45.437Z,96760.34
2022-12-08T21:10:14.425Z,96763.06
2022-12-08T21:12:43.339Z,96762.34
2022-12-08T21:15:13.251Z,96763.41
2022-12-08T21:17:43.230Z,96761.03
2022-12-08T21:20:12.144Z,96767.91
2022-12-08T21:22:40.942Z,96767.28
2022-12-08T21:25:10.519Z,96767.28
2022-12-08T21:27:39.806Z,96768.22
2022-12-08T21:30:10.595Z,96761.59
2022-12-08T21:32:40.205Z,96756.72
2022-12-08T21:35:11.226Z,96763.69
2022-12-08T21:37:39.969Z,96763.84
2022-12-08T21:40:10.857Z,96762.91
2022-12-08T21:42:46.224Z,96759.72
2022-12-08T21:45:17.203Z,96754.59
2022-12-08T21:47:46.409Z,96749.75
2022-12-08T21:50:17.173Z,96757.34
2022-12-08T21:52:47.690Z,96753.13
2022-12-08T21:55:19.114Z,96748.97
2022-12-08T21:57:47.948Z,96753.28
2022-12-08T22:00:18.154Z,96738.94
2022-12-08T22:02:47.189Z,96754.25
2022-12-08T22:05:17.390Z,96758.72
2022-12-08T22:07:45.942Z,96748.06
2022-12-08T22:10:14.743Z,96756.63
2022-12-08T22:12:43.552Z,96747.72
2022-12-08T22:15:12.774Z,96749.41
2022-12-08T22:17:42.914Z,96745.22
2022-12-08T22:20:14.251Z,96746.78
2022-12-08T22:22:45.555Z,96741.91
2022-12-08T22:25:14.534Z,96741.50
2022-12-08T22:27:43.150Z,96736.41
2022-12-08T22:30:12.618Z,96740.00
2022-12-08T22:32:41.910Z,96737.38
2022-12-08T22:35:11.173Z,96743.31
2022-12-08T22:37:39.831Z,96745.81
2022-12-08T22:40:12.091Z,96743.41
2022-12-08T22:42:40.651Z,96737.47
2022-12-08T22:45:10.092Z,96737.47
2022-12-08T22:47:38.564Z,96746.78
2022-12-08T22:50:08.338Z,96744.25
2022-12-08T22:52:37.381Z,96742.63
2022-12-08T22:55:06.965Z,96733.44
2022-12-08T22:57:36.889Z,96734.31
2022-12-08T23:00:07.606Z,96729.38
2022-12-08T23:02:38.400Z,96735.22
2022-12-08T23:05:07.803Z,96726.03
2022-12-08T23:07:36.551Z,96726.97
2022-12-08T23:10:07.039Z,96717.75
2022-12-08T23:12:37.865Z,96716.16
2022-12-08T23:15:07.807Z,96717.91
2022-12-08T23:17:36.583Z,96722.09
2022-12-08T23:20:06.497Z,96718.88
2022-12-08T23:22:35.331Z,96711.50
2022-12-08T23:25:03.983Z,96717.41
2022-12-08T23:27:32.696Z,96710.72
2022-12-08T23:30:02.720Z,96706.50
2022-12-08T23:32:31.340Z,96704.03
2022-12-08T23:34:59.913Z,96701.59
2022-12-08T23:37:28.783Z,96698.19
2022-12-08T23:39:57.380Z,96697.25
2022-12-08T23:42:25.862Z,96684.66
2022-12-08T23:44:54.277Z,96686.31
2022-12-08T23:47:24.280Z,96678.72
2022-12-08T23:49:52.968Z,96679.56
2022-12-08T23:52:21.527Z,96676.91
2022-12-08T23:54:51.174Z,96675.31
2022-12-08T23:57:19.686Z,96674.53
2022-12-08T23:59:48.232Z,96668.63
